PWSweather.com
Personal Weather Stations
Station Observations
KCOGRAND2
Redlands, Southcamp Road & Dakota Circle, Grand Junction, CO 81507

Redlands, Southcamp Road & Dakota CircleGrand Junction, CO 81507

Lat: 39.055, Lon: -108.637

Elevation: 4870

Station Type: RadioShack WX200

High Low Average
Temperature 47.5°F8.6°C 26.4°F-3.1°C 35.6°F2.0°C
Dew Point 25.7°F-3.5°C 17.1°F-8.3°C 20.3°F-6.5°C
Winds 8.0 mph 12.9 kmh Calm Calm 4.0 mph SSE6.4 kmh SSE
Wind Gusts 13.9 mph22.4 kmh -- 7.0 mph11.3 kmh
Humidity 78% 31% 56%
Pressure 25.39 in859.8 mb 25.10 in850.0 mb -
Precipitation 0.00 in0.0 mm - -
Hour Temp Dew Point Humidity Winds Wind Gusts Pressure Precip Precip Rate Daily Precip Total
12:01 AM 32.0°F0.0°C 25.7°F-3.5°C 77% 4.0 mph E6.4 kmh E 6.7 mph10.8 kmh 25.39 in859.8 mb 0.00 in0.0 mm 0.00 in/hr0.0 mm/hr 0.00 in0.0 mm
12:06 AM 32.0°F0.0°C 25.7°F-3.5°C 77% 4.0 mph E6.4 kmh E 6.9 mph11.1 kmh 25.39 in859.8 mb 0.00 in0.0 mm 0.00 in/hr0.0 mm/hr 0.00 in0.0 mm
12:11 AM 32.2°F0.1°C 25.5°F-3.6°C 76% 4.0 mph E6.4 kmh E 9.2 mph14.8 kmh 25.39 in859.8 mb 0.00 in0.0 mm 0.00 in/hr0.0 mm/hr 0.00 in0.0 mm
12:16 AM 32.2°F0.1°C 25.2°F-3.8°C 75% 5.0 mph E8.0 kmh E 8.7 mph14.0 kmh 25.39 in859.8 mb 0.00 in0.0 mm 0.00 in/hr0.0 mm/hr 0.00 in0.0 mm
12:21 AM 32.2°F0.1°C 24.8°F-4.0°C 74% 6.0 mph E9.7 kmh E 11.0 mph17.7 kmh 25.39 in859.8 mb 0.00 in0.0 mm 0.00 in/hr0.0 mm/hr 0.00 in0.0 mm
12:26 AM 32.0°F0.0°C 24.3°F-4.3°C 73% 7.0 mph E11.3 kmh E 12.1 mph19.5 kmh 25.39 in859.8 mb 0.00 in0.0 mm 0.00 in/hr0.0 mm/hr 0.00 in0.0 mm
12:31 AM 32.0°F0.0°C 24.3°F-4.3°C 73% 6.0 mph ESE9.7 kmh ESE 8.3 mph13.4 kmh 25.39 in859.8 mb 0.00 in0.0 mm 0.00 in/hr0.0 mm/hr 0.00 in0.0 mm
12:36 AM 31.6°F-0.2°C 24.1°F-4.4°C 73% 4.0 mph ESE6.4 kmh ESE 7.4 mph11.9 kmh 25.39 in859.8 mb 0.00 in0.0 mm 0.00 in/hr0.0 mm/hr 0.00 in0.0 mm
12:41 AM 31.5°F-0.3°C 23.9°F-4.5°C 73% 3.0 mph SE4.8 kmh SE 5.8 mph9.3 kmh 25.39 in859.8 mb 0.00 in0.0 mm 0.00 in/hr0.0 mm/hr 0.00 in0.0 mm
12:46 AM 31.5°F-0.3°C 24.1°F-4.4°C 74% 3.0 mph SE4.8 kmh SE 5.8 mph9.3 kmh 25.39 in859.8 mb 0.00 in0.0 mm 0.00 in/hr0.0 mm/hr 0.00 in0.0 mm
12:51 AM 31.6°F-0.2°C 24.3°F-4.3°C 74% 4.0 mph SE6.4 kmh SE 8.3 mph13.4 kmh 25.39 in859.8 mb 0.00 in0.0 mm 0.00 in/hr0.0 mm/hr 0.00 in0.0 mm
12:56 AM 31.8°F-0.1°C 24.4°F-4.2°C 74% 5.0 mph ESE8.0 kmh ESE 8.3 mph13.4 kmh 25.39 in859.8 mb 0.00 in0.0 mm 0.00 in/hr0.0 mm/hr 0.00 in0.0 mm
01:01 AM 31.8°F-0.1°C 24.1°F-4.4°C 73% 4.0 mph E6.4 kmh E 7.8 mph12.6 kmh 25.39 in859.8 mb 0.00 in0.0 mm 0.00 in/hr0.0 mm/hr 0.00 in0.0 mm
01:06 AM 32.0°F0.0°C 24.3°F-4.3°C 73% 4.0 mph E6.4 kmh E 6.9 mph11.1 kmh 25.39 in859.8 mb 0.00 in0.0 mm 0.00 in/hr0.0 mm/hr 0.00 in0.0 mm
01:11 AM 31.8°F-0.1°C 23.9°F-4.5°C 72% 4.0 mph E6.4 kmh E 6.3 mph10.1 kmh 25.39 in859.8 mb 0.00 in0.0 mm 0.00 in/hr0.0 mm/hr 0.00 in0.0 mm
01:16 AM 31.6°F-0.2°C 24.1°F-4.4°C 73% 4.0 mph E6.4 kmh E 6.3 mph10.1 kmh 25.39 in859.8 mb 0.00 in0.0 mm 0.00 in/hr0.0 mm/hr 0.00 in0.0 mm
01:21 AM 31.3°F-0.4°C 23.7°F-4.6°C 73% 4.0 mph ENE6.4 kmh ENE 6.3 mph10.1 kmh 25.39 in859.8 mb 0.00 in0.0 mm 0.00 in/hr0.0 mm/hr 0.00 in0.0 mm
01:26 AM 31.1°F-0.5°C 23.5°F-4.7°C 73% 4.0 mph ENE6.4 kmh ENE 6.7 mph10.8 kmh 25.39 in859.8 mb 0.00 in0.0 mm 0.00 in/hr0.0 mm/hr 0.00 in0.0 mm
01:31 AM 30.9°F-0.6°C 23.4°F-4.8°C 73% 4.0 mph ENE6.4 kmh ENE 6.7 mph10.8 kmh 25.37 in859.1 mb 0.00 in0.0 mm 0.00 in/hr0.0 mm/hr 0.00 in0.0 mm
01:36 AM 30.7°F-0.7°C 23.5°F-4.7°C 74% 4.0 mph E6.4 kmh E 6.3 mph10.1 kmh 25.37 in859.1 mb 0.00 in0.0 mm 0.00 in/hr0.0 mm/hr 0.00 in0.0 mm
01:41 AM 30.7°F-0.7°C 23.5°F-4.7°C 74% 3.0 mph E4.8 kmh E 4.0 mph6.4 kmh 25.37 in859.1 mb 0.00 in0.0 mm 0.00 in/hr0.0 mm/hr 0.00 in0.0 mm
01:46 AM 30.6°F-0.8°C 23.4°F-4.8°C 74% 1.0 mph E1.6 kmh E 3.6 mph5.8 kmh 25.37 in859.1 mb 0.00 in0.0 mm 0.00 in/hr0.0 mm/hr 0.00 in0.0 mm
01:51 AM 30.4°F-0.9°C 23.2°F-4.9°C 74% Calm Calm 4.0 mph6.4 kmh 25.37 in859.1 mb 0.00 in0.0 mm 0.00 in/hr0.0 mm/hr 0.00 in0.0 mm
01:56 AM 29.8°F-1.2°C 22.8°F-5.1°C 75% Calm Calm 3.6 mph5.8 kmh 25.37 in859.1 mb 0.00 in0.0 mm 0.00 in/hr0.0 mm/hr 0.00 in0.0 mm
02:01 AM 29.7°F-1.3°C 22.6°F-5.2°C 75% Calm Calm -- 25.37 in859.1 mb 0.00 in0.0 mm 0.00 in/hr0.0 mm/hr 0.00 in0.0 mm
02:06 AM 29.5°F-1.4°C 22.8°F-5.1°C 76% Calm Calm 3.6 mph5.8 kmh 25.37 in859.1 mb 0.00 in0.0 mm 0.00 in/hr0.0 mm/hr 0.00 in0.0 mm
02:11 AM 29.3°F-1.5°C 22.6°F-5.2°C 76% Calm Calm 2.7 mph4.3 kmh 25.37 in859.1 mb 0.00 in0.0 mm 0.00 in/hr0.0 mm/hr 0.00 in0.0 mm
02:16 AM 29.7°F-1.3°C 23.4°F-4.8°C 77% Calm Calm 3.1 mph5.0 kmh 25.37 in859.1 mb 0.00 in0.0 mm 0.00 in/hr0.0 mm/hr 0.00 in0.0 mm
02:21 AM 29.7°F-1.3°C 23.4°F-4.8°C 77% Calm Calm 4.5 mph7.2 kmh 25.37 in859.1 mb 0.00 in0.0 mm 0.00 in/hr0.0 mm/hr 0.00 in0.0 mm
02:26 AM 29.7°F-1.3°C 23.4°F-4.8°C 77% 3.0 mph ESE4.8 kmh ESE 9.2 mph14.8 kmh 25.37 in859.1 mb 0.00 in0.0 mm 0.00 in/hr0.0 mm/hr 0.00 in0.0 mm
02:31 AM 29.8°F-1.2°C 23.9°F-4.5°C 78% 6.0 mph ESE9.7 kmh ESE 12.1 mph19.5 kmh 25.37 in859.1 mb 0.00 in0.0 mm 0.00 in/hr0.0 mm/hr 0.00 in0.0 mm
02:37 AM 30.0°F-1.1°C 23.7°F-4.6°C 77% 6.0 mph E9.7 kmh E 9.2 mph14.8 kmh 25.37 in859.1 mb 0.00 in0.0 mm 0.00 in/hr0.0 mm/hr 0.00 in0.0 mm
02:42 AM 30.0°F-1.1°C 23.0°F-5.0°C 75% 6.0 mph ESE9.7 kmh ESE 11.2 mph18.0 kmh 25.37 in859.1 mb 0.00 in0.0 mm 0.00 in/hr0.0 mm/hr 0.00 in0.0 mm
02:47 AM 29.8°F-1.2°C 22.6°F-5.2°C 74% 6.0 mph ESE9.7 kmh ESE 10.5 mph16.9 kmh 25.37 in859.1 mb 0.00 in0.0 mm 0.00 in/hr0.0 mm/hr 0.00 in0.0 mm
02:52 AM 29.5°F-1.4°C 22.6°F-5.2°C 75% 4.0 mph SE6.4 kmh SE 5.8 mph9.3 kmh 25.37 in859.1 mb 0.00 in0.0 mm 0.00 in/hr0.0 mm/hr 0.00 in0.0 mm
02:57 AM 28.6°F-1.9°C 21.9°F-5.6°C 76% 2.0 mph SE3.2 kmh SE 4.5 mph7.2 kmh 25.37 in859.1 mb 0.00 in0.0 mm 0.00 in/hr0.0 mm/hr 0.00 in0.0 mm
03:02 AM 28.8°F-1.8°C 22.5°F-5.3°C 77% 2.0 mph SE3.2 kmh SE 7.8 mph12.6 kmh 25.37 in859.1 mb 0.00 in0.0 mm 0.00 in/hr0.0 mm/hr 0.00 in0.0 mm
03:07 AM 29.5°F-1.4°C 23.5°F-4.7°C 78% 3.0 mph SSE4.8 kmh SSE 6.7 mph10.8 kmh 25.37 in859.1 mb 0.00 in0.0 mm 0.00 in/hr0.0 mm/hr 0.00 in0.0 mm
03:12 AM 30.7°F-0.7°C 24.1°F-4.4°C 76% 4.0 mph SE6.4 kmh SE 8.7 mph14.0 kmh 25.37 in859.1 mb 0.00 in0.0 mm 0.00 in/hr0.0 mm/hr 0.00 in0.0 mm
03:17 AM 31.3°F-0.4°C 22.6°F-5.2°C 70% 6.0 mph SE9.7 kmh SE 13.9 mph22.4 kmh 25.34 in858.1 mb 0.00 in0.0 mm 0.00 in/hr0.0 mm/hr 0.00 in0.0 mm
03:22 AM 31.5°F-0.3°C 21.4°F-5.9°C 66% 7.0 mph SE11.3 kmh SE 13.0 mph20.9 kmh 25.34 in858.1 mb 0.00 in0.0 mm 0.00 in/hr0.0 mm/hr 0.00 in0.0 mm
03:27 AM 31.6°F-0.2°C 20.8°F-6.2°C 64% 7.0 mph SE11.3 kmh SE 11.2 mph18.0 kmh 25.34 in858.1 mb 0.00 in0.0 mm 0.00 in/hr0.0 mm/hr 0.00 in0.0 mm
03:32 AM 31.5°F-0.3°C 20.3°F-6.5°C 63% 6.0 mph SE9.7 kmh SE 9.6 mph15.4 kmh 25.34 in858.1 mb 0.00 in0.0 mm 0.00 in/hr0.0 mm/hr 0.00 in0.0 mm
03:37 AM 31.1°F-0.5°C 20.3°F-6.5°C 64% 5.0 mph SE8.0 kmh SE 7.8 mph12.6 kmh 25.34 in858.1 mb 0.00 in0.0 mm 0.00 in/hr0.0 mm/hr 0.00 in0.0 mm
03:42 AM 30.9°F-0.6°C 20.5°F-6.4°C 65% 3.0 mph SE4.8 kmh SE 6.7 mph10.8 kmh 25.34 in858.1 mb 0.00 in0.0 mm 0.00 in/hr0.0 mm/hr 0.00 in0.0 mm
03:47 AM 30.4°F-0.9°C 20.1°F-6.6°C 65% 3.0 mph SE4.8 kmh SE 7.4 mph11.9 kmh 25.34 in858.1 mb 0.00 in0.0 mm 0.00 in/hr0.0 mm/hr 0.00 in0.0 mm
03:52 AM 30.4°F-0.9°C 20.8°F-6.2°C 67% 3.0 mph ESE4.8 kmh ESE 7.4 mph11.9 kmh 25.34 in858.1 mb 0.00 in0.0 mm 0.00 in/hr0.0 mm/hr 0.00 in0.0 mm
03:57 AM 30.0°F-1.1°C 20.5°F-6.4°C 67% 4.0 mph E6.4 kmh E 6.7 mph10.8 kmh 25.34 in858.1 mb 0.00 in0.0 mm 0.00 in/hr0.0 mm/hr 0.00 in0.0 mm
04:02 AM 29.7°F-1.3°C 20.5°F-6.4°C 68% 3.0 mph E4.8 kmh E 6.9 mph11.1 kmh 25.34 in858.1 mb 0.00 in0.0 mm 0.00 in/hr0.0 mm/hr 0.00 in0.0 mm
04:07 AM 29.7°F-1.3°C 20.8°F-6.2°C 69% 2.0 mph E3.2 kmh E 4.0 mph6.4 kmh 25.34 in858.1 mb 0.00 in0.0 mm 0.00 in/hr0.0 mm/hr 0.00 in0.0 mm
04:12 AM 29.3°F-1.5°C 20.8°F-6.2°C 70% 1.0 mph ENE1.6 kmh ENE 4.0 mph6.4 kmh 25.34 in858.1 mb 0.00 in0.0 mm 0.00 in/hr0.0 mm/hr 0.00 in0.0 mm
04:17 AM 28.9°F-1.7°C 20.5°F-6.4°C 70% 1.0 mph E1.6 kmh E 3.6 mph5.8 kmh 25.34 in858.1 mb 0.00 in0.0 mm 0.00 in/hr0.0 mm/hr 0.00 in0.0 mm
04:22 AM 28.9°F-1.7°C 21.0°F-6.1°C 72% 2.0 mph E3.2 kmh E 4.5 mph7.2 kmh 25.34 in858.1 mb 0.00 in0.0 mm 0.00 in/hr0.0 mm/hr 0.00 in0.0 mm
04:27 AM 29.8°F-1.2°C 22.3°F-5.4°C 73% 2.0 mph E3.2 kmh E 6.9 mph11.1 kmh 25.34 in858.1 mb 0.00 in0.0 mm 0.00 in/hr0.0 mm/hr 0.00 in0.0 mm
04:32 AM 29.1°F-1.6°C 21.2°F-6.0°C 72% 2.0 mph SE3.2 kmh SE 4.0 mph6.4 kmh 25.34 in858.1 mb 0.00 in0.0 mm 0.00 in/hr0.0 mm/hr 0.00 in0.0 mm
04:37 AM 28.8°F-1.8°C 20.8°F-6.2°C 72% 1.0 mph SE1.6 kmh SE 4.5 mph7.2 kmh 25.34 in858.1 mb 0.00 in0.0 mm 0.00 in/hr0.0 mm/hr 0.00 in0.0 mm
04:42 AM 28.9°F-1.7°C 21.4°F-5.9°C 73% Calm Calm 3.1 mph5.0 kmh 25.34 in858.1 mb 0.00 in0.0 mm 0.00 in/hr0.0 mm/hr 0.00 in0.0 mm
04:47 AM 28.6°F-1.9°C 21.0°F-6.1°C 73% Calm Calm 2.7 mph4.3 kmh 25.34 in858.1 mb 0.00 in0.0 mm 0.00 in/hr0.0 mm/hr 0.00 in0.0 mm
04:52 AM 28.4°F-2.0°C 21.2°F-6.0°C 74% Calm Calm 3.6 mph5.8 kmh 25.34 in858.1 mb 0.00 in0.0 mm 0.00 in/hr0.0 mm/hr 0.00 in0.0 mm
04:57 AM 27.9°F-2.3°C 20.7°F-6.3°C 74% Calm Calm 2.7 mph4.3 kmh 25.34 in858.1 mb 0.00 in0.0 mm 0.00 in/hr0.0 mm/hr 0.00 in0.0 mm
05:02 AM 27.7°F-2.4°C 20.5°F-6.4°C 74% Calm Calm -- 25.34 in858.1 mb 0.00 in0.0 mm 0.00 in/hr0.0 mm/hr 0.00 in0.0 mm
05:07 AM 27.7°F-2.4°C 20.5°F-6.4°C 74% Calm Calm -- 25.34 in858.1 mb 0.00 in0.0 mm 0.00 in/hr0.0 mm/hr 0.00 in0.0 mm
05:12 AM 28.0°F-2.2°C 21.4°F-5.9°C 76% Calm Calm 4.0 mph6.4 kmh 25.34 in858.1 mb 0.00 in0.0 mm 0.00 in/hr0.0 mm/hr 0.00 in0.0 mm
05:17 AM 28.6°F-1.9°C 21.7°F-5.7°C 75% 2.0 mph S3.2 kmh S 8.7 mph14.0 kmh 25.34 in858.1 mb 0.00 in0.0 mm 0.00 in/hr0.0 mm/hr 0.00 in0.0 mm
05:22 AM 28.8°F-1.8°C 21.2°F-6.0°C 73% 3.0 mph SSE4.8 kmh SSE 7.4 mph11.9 kmh 25.34 in858.1 mb 0.00 in0.0 mm 0.00 in/hr0.0 mm/hr 0.00 in0.0 mm
05:27 AM 28.8°F-1.8°C 21.2°F-6.0°C 73% 4.0 mph SSE6.4 kmh SSE 8.3 mph13.4 kmh 25.34 in858.1 mb 0.00 in0.0 mm 0.00 in/hr0.0 mm/hr 0.00 in0.0 mm
05:32 AM 28.6°F-1.9°C 20.7°F-6.3°C 72% 4.0 mph SE6.4 kmh SE 5.8 mph9.3 kmh 25.34 in858.1 mb 0.00 in0.0 mm 0.00 in/hr0.0 mm/hr 0.00 in0.0 mm
05:37 AM 28.9°F-1.7°C 21.0°F-6.1°C 72% 4.0 mph SE6.4 kmh SE 7.4 mph11.9 kmh 25.34 in858.1 mb 0.00 in0.0 mm 0.00 in/hr0.0 mm/hr 0.00 in0.0 mm
05:42 AM 29.1°F-1.6°C 20.3°F-6.5°C 69% 6.0 mph SE9.7 kmh SE 10.1 mph16.3 kmh 25.34 in858.1 mb 0.00 in0.0 mm 0.00 in/hr0.0 mm/hr 0.00 in0.0 mm
05:47 AM 29.1°F-1.6°C 19.6°F-6.9°C 67% 6.0 mph ESE9.7 kmh ESE 9.6 mph15.4 kmh 25.34 in858.1 mb 0.00 in0.0 mm 0.00 in/hr0.0 mm/hr 0.00 in0.0 mm
05:52 AM 29.1°F-1.6°C 19.6°F-6.9°C 67% 5.0 mph E8.0 kmh E 6.7 mph10.8 kmh 25.34 in858.1 mb 0.00 in0.0 mm 0.00 in/hr0.0 mm/hr 0.00 in0.0 mm
05:57 AM 28.8°F-1.8°C 19.2°F-7.1°C 67% 4.0 mph E6.4 kmh E 5.8 mph9.3 kmh 25.34 in858.1 mb 0.00 in0.0 mm 0.00 in/hr0.0 mm/hr 0.00 in0.0 mm
06:02 AM 28.6°F-1.9°C 19.0°F-7.2°C 67% 2.0 mph E3.2 kmh E 3.6 mph5.8 kmh 25.34 in858.1 mb 0.00 in0.0 mm 0.00 in/hr0.0 mm/hr 0.00 in0.0 mm
06:07 AM 28.0°F-2.2°C 18.9°F-7.3°C 68% Calm Calm 2.7 mph4.3 kmh 25.34 in858.1 mb 0.00 in0.0 mm 0.00 in/hr0.0 mm/hr 0.00 in0.0 mm
06:12 AM 27.7°F-2.4°C 18.5°F-7.5°C 68% Calm Calm 2.7 mph4.3 kmh 25.34 in858.1 mb 0.00 in0.0 mm 0.00 in/hr0.0 mm/hr 0.00 in0.0 mm
06:17 AM 27.5°F-2.5°C 18.7°F-7.4°C 69% Calm Calm 2.7 mph4.3 kmh 25.34 in858.1 mb 0.00 in0.0 mm 0.00 in/hr0.0 mm/hr 0.00 in0.0 mm
06:22 AM 27.7°F-2.4°C 18.9°F-7.3°C 69% 1.0 mph E1.6 kmh E 4.0 mph6.4 kmh 25.34 in858.1 mb 0.00 in0.0 mm 0.00 in/hr0.0 mm/hr 0.00 in0.0 mm
06:27 AM 27.7°F-2.4°C 19.6°F-6.9°C 71% 2.0 mph E3.2 kmh E 3.6 mph5.8 kmh 25.34 in858.1 mb 0.00 in0.0 mm 0.00 in/hr0.0 mm/hr 0.00 in0.0 mm
06:32 AM 27.1°F-2.7°C 19.0°F-7.2°C 71% 1.0 mph E1.6 kmh E 3.6 mph5.8 kmh 25.34 in858.1 mb 0.00 in0.0 mm 0.00 in/hr0.0 mm/hr 0.00 in0.0 mm
06:37 AM 26.6°F-3.0°C 18.9°F-7.3°C 72% Calm Calm -- 25.34 in858.1 mb 0.00 in0.0 mm 0.00 in/hr0.0 mm/hr 0.00 in0.0 mm
06:42 AM 26.4°F-3.1°C 19.0°F-7.2°C 73% Calm Calm -- 25.34 in858.1 mb 0.00 in0.0 mm 0.00 in/hr0.0 mm/hr 0.00 in0.0 mm
06:47 AM 26.8°F-2.9°C 19.2°F-7.1°C 73% Calm Calm 2.7 mph4.3 kmh 25.34 in858.1 mb 0.00 in0.0 mm 0.00 in/hr0.0 mm/hr 0.00 in0.0 mm
06:52 AM 27.3°F-2.6°C 20.1°F-6.6°C 74% 1.0 mph E1.6 kmh E 5.4 mph8.7 kmh 25.34 in858.1 mb 0.00 in0.0 mm 0.00 in/hr0.0 mm/hr 0.00 in0.0 mm
06:57 AM 27.3°F-2.6°C 20.5°F-6.4°C 75% 3.0 mph E4.8 kmh E 5.8 mph9.3 kmh 25.34 in858.1 mb 0.00 in0.0 mm 0.00 in/hr0.0 mm/hr 0.00 in0.0 mm
07:02 AM 26.6°F-3.0°C 19.4°F-7.0°C 74% 1.0 mph ESE1.6 kmh ESE 3.6 mph5.8 kmh 25.34 in858.1 mb 0.00 in0.0 mm 0.00 in/hr0.0 mm/hr 0.00 in0.0 mm
07:07 AM 26.8°F-2.9°C 19.9°F-6.7°C 75% 1.0 mph SE1.6 kmh SE 3.6 mph5.8 kmh 25.34 in858.1 mb 0.00 in0.0 mm 0.00 in/hr0.0 mm/hr 0.00 in0.0 mm
07:12 AM 26.8°F-2.9°C 19.9°F-6.7°C 75% 1.0 mph SE1.6 kmh SE 3.1 mph5.0 kmh 25.34 in858.1 mb 0.00 in0.0 mm 0.00 in/hr0.0 mm/hr 0.00 in0.0 mm
07:17 AM 27.7°F-2.4°C 20.8°F-6.2°C 75% 1.0 mph SE1.6 kmh SE 3.6 mph5.8 kmh 25.34 in858.1 mb 0.00 in0.0 mm 0.00 in/hr0.0 mm/hr 0.00 in0.0 mm
07:22 AM 28.4°F-2.0°C 21.6°F-5.8°C 75% 2.0 mph SE3.2 kmh SE 3.6 mph5.8 kmh 25.34 in858.1 mb 0.00 in0.0 mm 0.00 in/hr0.0 mm/hr 0.00 in0.0 mm
07:27 AM 28.6°F-1.9°C 21.4°F-5.9°C 74% 2.0 mph SE3.2 kmh SE 3.6 mph5.8 kmh 25.34 in858.1 mb 0.00 in0.0 mm 0.00 in/hr0.0 mm/hr 0.00 in0.0 mm
07:32 AM 28.8°F-1.8°C 21.6°F-5.8°C 74% 2.0 mph SE3.2 kmh SE 4.0 mph6.4 kmh 25.34 in858.1 mb 0.00 in0.0 mm 0.00 in/hr0.0 mm/hr 0.00 in0.0 mm
07:37 AM 28.9°F-1.7°C 21.4°F-5.9°C 73% 2.0 mph SE3.2 kmh SE 5.8 mph9.3 kmh 25.34 in858.1 mb 0.00 in0.0 mm 0.00 in/hr0.0 mm/hr 0.00 in0.0 mm
07:42 AM 29.1°F-1.6°C 21.6°F-5.8°C 73% 3.0 mph SE4.8 kmh SE 6.9 mph11.1 kmh 25.34 in858.1 mb 0.00 in0.0 mm 0.00 in/hr0.0 mm/hr 0.00 in0.0 mm
07:47 AM 29.8°F-1.2°C 21.6°F-5.8°C 71% 3.0 mph SE4.8 kmh SE 6.3 mph10.1 kmh 25.34 in858.1 mb 0.00 in0.0 mm 0.00 in/hr0.0 mm/hr 0.00 in0.0 mm
07:52 AM 30.4°F-0.9°C 21.4°F-5.9°C 69% 4.0 mph SE6.4 kmh SE 7.4 mph11.9 kmh 25.34 in858.1 mb 0.00 in0.0 mm 0.00 in/hr0.0 mm/hr 0.00 in0.0 mm
07:57 AM 30.7°F-0.7°C 19.6°F-6.9°C 63% 6.0 mph SE9.7 kmh SE 12.5 mph20.1 kmh 25.34 in858.1 mb 0.00 in0.0 mm 0.00 in/hr0.0 mm/hr 0.00 in0.0 mm
08:02 AM 31.1°F-0.5°C 18.1°F-7.7°C 58% 8.0 mph SE12.9 kmh SE 12.5 mph20.1 kmh 25.34 in858.1 mb 0.00 in0.0 mm 0.00 in/hr0.0 mm/hr 0.00 in0.0 mm
08:07 AM 31.3°F-0.4°C 17.8°F-7.9°C 57% 7.0 mph SSE11.3 kmh SSE 11.6 mph18.7 kmh 25.34 in858.1 mb 0.00 in0.0 mm 0.00 in/hr0.0 mm/hr 0.00 in0.0 mm
08:12 AM 31.6°F-0.2°C 17.8°F-7.9°C 56% 7.0 mph SSE11.3 kmh SSE 11.2 mph18.0 kmh 25.34 in858.1 mb 0.00 in0.0 mm 0.00 in/hr0.0 mm/hr 0.00 in0.0 mm
08:17 AM 31.8°F-0.1°C 18.0°F-7.8°C 56% 6.0 mph SSE9.7 kmh SSE 8.7 mph14.0 kmh 25.34 in858.1 mb 0.00 in0.0 mm 0.00 in/hr0.0 mm/hr 0.00 in0.0 mm
08:22 AM 32.0°F0.0°C 18.1°F-7.7°C 56% 5.0 mph SSE8.0 kmh SSE 9.6 mph15.4 kmh 25.34 in858.1 mb 0.00 in0.0 mm 0.00 in/hr0.0 mm/hr 0.00 in0.0 mm
08:27 AM 32.5°F0.3°C 18.7°F-7.4°C 56% 6.0 mph SE9.7 kmh SE 9.2 mph14.8 kmh 25.34 in858.1 mb 0.00 in0.0 mm 0.00 in/hr0.0 mm/hr 0.00 in0.0 mm
08:32 AM 32.2°F0.1°C 17.4°F-8.1°C 54% 5.0 mph ESE8.0 kmh ESE 7.4 mph11.9 kmh 25.34 in858.1 mb 0.00 in0.0 mm 0.00 in/hr0.0 mm/hr 0.00 in0.0 mm
08:37 AM 32.0°F0.0°C 17.2°F-8.2°C 54% 6.0 mph E9.7 kmh E 8.7 mph14.0 kmh 25.34 in858.1 mb 0.00 in0.0 mm 0.00 in/hr0.0 mm/hr 0.00 in0.0 mm
08:42 AM 32.5°F0.3°C 17.8°F-7.9°C 54% 6.0 mph ENE9.7 kmh ENE 7.8 mph12.6 kmh 25.34 in858.1 mb 0.00 in0.0 mm 0.00 in/hr0.0 mm/hr 0.00 in0.0 mm
08:47 AM 33.1°F0.6°C 18.3°F-7.6°C 54% 5.0 mph ENE8.0 kmh ENE 7.4 mph11.9 kmh 25.34 in858.1 mb 0.00 in0.0 mm 0.00 in/hr0.0 mm/hr 0.00 in0.0 mm
08:52 AM 33.3°F0.7°C 18.5°F-7.5°C 54% 4.0 mph ENE6.4 kmh ENE 6.3 mph10.1 kmh 25.34 in858.1 mb 0.00 in0.0 mm 0.00 in/hr0.0 mm/hr 0.00 in0.0 mm
08:57 AM 33.6°F0.9°C 18.9°F-7.3°C 54% 4.0 mph E6.4 kmh E 6.9 mph11.1 kmh 25.34 in858.1 mb 0.00 in0.0 mm 0.00 in/hr0.0 mm/hr 0.00 in0.0 mm
09:02 AM 34.2°F1.2°C 19.2°F-7.1°C 54% 4.0 mph E6.4 kmh E 7.4 mph11.9 kmh 25.34 in858.1 mb 0.00 in0.0 mm 0.00 in/hr0.0 mm/hr 0.00 in0.0 mm
09:08 AM 34.0°F1.1°C 18.7°F-7.4°C 53% 5.0 mph ESE8.0 kmh ESE 8.3 mph13.4 kmh 25.34 in858.1 mb 0.00 in0.0 mm 0.00 in/hr0.0 mm/hr 0.00 in0.0 mm
09:13 AM 33.8°F1.0°C 18.5°F-7.5°C 53% 6.0 mph ESE9.7 kmh ESE 8.7 mph14.0 kmh 25.34 in858.1 mb 0.00 in0.0 mm 0.00 in/hr0.0 mm/hr 0.00 in0.0 mm
09:18 AM 34.0°F1.1°C 18.7°F-7.4°C 53% 5.0 mph ESE8.0 kmh ESE 7.4 mph11.9 kmh 25.31 in857.1 mb 0.00 in0.0 mm 0.00 in/hr0.0 mm/hr 0.00 in0.0 mm
09:23 AM 34.3°F1.3°C 18.5°F-7.5°C 52% 5.0 mph E8.0 kmh E 7.8 mph12.6 kmh 25.31 in857.1 mb 0.00 in0.0 mm 0.00 in/hr0.0 mm/hr 0.00 in0.0 mm
09:28 AM 35.1°F1.7°C 19.2°F-7.1°C 52% 5.0 mph ESE8.0 kmh ESE 7.8 mph12.6 kmh 25.31 in857.1 mb 0.00 in0.0 mm 0.00 in/hr0.0 mm/hr 0.00 in0.0 mm
09:33 AM 35.1°F1.7°C 18.9°F-7.3°C 51% 5.0 mph ESE8.0 kmh ESE 7.4 mph11.9 kmh 25.31 in857.1 mb 0.00 in0.0 mm 0.00 in/hr0.0 mm/hr 0.00 in0.0 mm
09:38 AM 34.9°F1.6°C 18.1°F-7.7°C 50% 4.0 mph SE6.4 kmh SE 6.3 mph10.1 kmh 25.31 in857.1 mb 0.00 in0.0 mm 0.00 in/hr0.0 mm/hr 0.00 in0.0 mm
09:43 AM 35.8°F2.1°C 19.0°F-7.2°C 50% 4.0 mph SE6.4 kmh SE 7.8 mph12.6 kmh 25.31 in857.1 mb 0.00 in0.0 mm 0.00 in/hr0.0 mm/hr 0.00 in0.0 mm
09:48 AM 36.0°F2.2°C 18.7°F-7.4°C 49% 4.0 mph SE6.4 kmh SE 6.7 mph10.8 kmh 25.31 in857.1 mb 0.00 in0.0 mm 0.00 in/hr0.0 mm/hr 0.00 in0.0 mm
09:53 AM 36.3°F2.4°C 19.0°F-7.2°C 49% 4.0 mph SE6.4 kmh SE 7.8 mph12.6 kmh 25.31 in857.1 mb 0.00 in0.0 mm 0.00 in/hr0.0 mm/hr 0.00 in0.0 mm
09:58 AM 36.1°F2.3°C 18.0°F-7.8°C 47% 4.0 mph SE6.4 kmh SE 6.9 mph11.1 kmh 25.31 in857.1 mb 0.00 in0.0 mm 0.00 in/hr0.0 mm/hr 0.00 in0.0 mm
10:03 AM 36.3°F2.4°C 18.5°F-7.5°C 48% 4.0 mph SE6.4 kmh SE 7.8 mph12.6 kmh 25.31 in857.1 mb 0.00 in0.0 mm 0.00 in/hr0.0 mm/hr 0.00 in0.0 mm
10:08 AM 37.2°F2.9°C 18.3°F-7.6°C 46% 5.0 mph SE8.0 kmh SE 7.4 mph11.9 kmh 25.31 in857.1 mb 0.00 in0.0 mm 0.00 in/hr0.0 mm/hr 0.00 in0.0 mm
10:13 AM 36.9°F2.7°C 18.0°F-7.8°C 46% 5.0 mph SE8.0 kmh SE 7.4 mph11.9 kmh 25.31 in857.1 mb 0.00 in0.0 mm 0.00 in/hr0.0 mm/hr 0.00 in0.0 mm
10:18 AM 37.6°F3.1°C 18.1°F-7.7°C 45% 4.0 mph SE6.4 kmh SE 7.4 mph11.9 kmh 25.31 in857.1 mb 0.00 in0.0 mm 0.00 in/hr0.0 mm/hr 0.00 in0.0 mm
10:23 AM 37.8°F3.2°C 18.3°F-7.6°C 45% 4.0 mph SE6.4 kmh SE 8.3 mph13.4 kmh 25.31 in857.1 mb 0.00 in0.0 mm 0.00 in/hr0.0 mm/hr 0.00 in0.0 mm
10:28 AM 37.6°F3.1°C 17.6°F-8.0°C 44% 4.0 mph SSE6.4 kmh SSE 6.7 mph10.8 kmh 25.28 in856.1 mb 0.00 in0.0 mm 0.00 in/hr0.0 mm/hr 0.00 in0.0 mm
10:33 AM 38.7°F3.7°C 18.1°F-7.7°C 43% 4.0 mph SSE6.4 kmh SSE 8.3 mph13.4 kmh 25.28 in856.1 mb 0.00 in0.0 mm 0.00 in/hr0.0 mm/hr 0.00 in0.0 mm
10:38 AM 38.1°F3.4°C 17.1°F-8.3°C 42% 4.0 mph SE6.4 kmh SE 7.8 mph12.6 kmh 25.28 in856.1 mb 0.00 in0.0 mm 0.00 in/hr0.0 mm/hr 0.00 in0.0 mm
10:43 AM 39.2°F4.0°C 18.1°F-7.7°C 42% 4.0 mph ESE6.4 kmh ESE 5.8 mph9.3 kmh 25.28 in856.1 mb 0.00 in0.0 mm 0.00 in/hr0.0 mm/hr 0.00 in0.0 mm
10:48 AM 39.4°F4.1°C 18.1°F-7.7°C 42% 3.0 mph SE4.8 kmh SE 6.3 mph10.1 kmh 25.28 in856.1 mb 0.00 in0.0 mm 0.00 in/hr0.0 mm/hr 0.00 in0.0 mm
10:53 AM 39.4°F4.1°C 17.1°F-8.3°C 40% 3.0 mph SE4.8 kmh SE 7.8 mph12.6 kmh 25.28 in856.1 mb 0.00 in0.0 mm 0.00 in/hr0.0 mm/hr 0.00 in0.0 mm
10:58 AM 40.5°F4.7°C 18.1°F-7.7°C 40% 4.0 mph SSE6.4 kmh SSE 7.4 mph11.9 kmh 25.28 in856.1 mb 0.00 in0.0 mm 0.00 in/hr0.0 mm/hr 0.00 in0.0 mm
11:03 AM 40.8°F4.9°C 18.3°F-7.6°C 40% 4.0 mph S6.4 kmh S 6.3 mph10.1 kmh 25.28 in856.1 mb 0.00 in0.0 mm 0.00 in/hr0.0 mm/hr 0.00 in0.0 mm
11:08 AM 39.9°F4.4°C 17.6°F-8.0°C 40% 4.0 mph S6.4 kmh S 8.3 mph13.4 kmh 25.28 in856.1 mb 0.00 in0.0 mm 0.00 in/hr0.0 mm/hr 0.00 in0.0 mm
11:13 AM 40.5°F4.7°C 17.4°F-8.1°C 39% 4.0 mph S6.4 kmh S 6.7 mph10.8 kmh 25.28 in856.1 mb 0.00 in0.0 mm 0.00 in/hr0.0 mm/hr 0.00 in0.0 mm
11:18 AM 40.8°F4.9°C 17.8°F-7.9°C 39% 3.0 mph S4.8 kmh S 5.4 mph8.7 kmh 25.28 in856.1 mb 0.00 in0.0 mm 0.00 in/hr0.0 mm/hr 0.00 in0.0 mm
11:23 AM 41.0°F5.0°C 18.5°F-7.5°C 40% 2.0 mph S3.2 kmh S 5.8 mph9.3 kmh 25.28 in856.1 mb 0.00 in0.0 mm 0.00 in/hr0.0 mm/hr 0.00 in0.0 mm
11:28 AM 40.6°F4.8°C 18.1°F-7.7°C 40% 3.0 mph SSW4.8 kmh SSW 5.8 mph9.3 kmh 25.25 in855.1 mb 0.00 in0.0 mm 0.00 in/hr0.0 mm/hr 0.00 in0.0 mm
11:33 AM 40.6°F4.8°C 18.1°F-7.7°C 40% 4.0 mph WSW6.4 kmh WSW 6.7 mph10.8 kmh 25.25 in855.1 mb 0.00 in0.0 mm 0.00 in/hr0.0 mm/hr 0.00 in0.0 mm
11:38 AM 41.2°F5.1°C 18.1°F-7.7°C 39% 4.0 mph WSW6.4 kmh WSW 6.7 mph10.8 kmh 25.25 in855.1 mb 0.00 in0.0 mm 0.00 in/hr0.0 mm/hr 0.00 in0.0 mm
11:43 AM 41.9°F5.5°C 18.7°F-7.4°C 39% 3.0 mph NNW4.8 kmh NNW 7.8 mph12.6 kmh 25.25 in855.1 mb 0.00 in0.0 mm 0.00 in/hr0.0 mm/hr 0.00 in0.0 mm
11:48 AM 42.3°F5.7°C 19.0°F-7.2°C 39% 4.0 mph ENE6.4 kmh ENE 7.8 mph12.6 kmh 25.25 in855.1 mb 0.00 in0.0 mm 0.00 in/hr0.0 mm/hr 0.00 in0.0 mm
11:53 AM 43.5°F6.4°C 20.8°F-6.2°C 40% 4.0 mph E6.4 kmh E 6.9 mph11.1 kmh 25.25 in855.1 mb 0.00 in0.0 mm 0.00 in/hr0.0 mm/hr 0.00 in0.0 mm
11:58 AM 42.4°F5.8°C 18.7°F-7.4°C 38% 4.0 mph ENE6.4 kmh ENE 4.9 mph7.9 kmh 25.25 in855.1 mb 0.00 in0.0 mm 0.00 in/hr0.0 mm/hr 0.00 in0.0 mm
12:03 PM 43.2°F6.2°C 19.2°F-7.1°C 38% 3.0 mph ENE4.8 kmh ENE 6.9 mph11.1 kmh 25.25 in855.1 mb 0.00 in0.0 mm 0.00 in/hr0.0 mm/hr 0.00 in0.0 mm
12:08 PM 42.1°F5.6°C 18.3°F-7.6°C 38% 4.0 mph E6.4 kmh E 7.4 mph11.9 kmh 25.25 in855.1 mb 0.00 in0.0 mm 0.00 in/hr0.0 mm/hr 0.00 in0.0 mm
12:13 PM 42.6°F5.9°C 18.9°F-7.3°C 38% 4.0 mph SE6.4 kmh SE 5.4 mph8.7 kmh 25.22 in854.0 mb 0.00 in0.0 mm 0.00 in/hr0.0 mm/hr 0.00 in0.0 mm
12:18 PM 42.1°F5.6°C 18.3°F-7.6°C 38% 4.0 mph ESE6.4 kmh ESE 6.7 mph10.8 kmh 25.22 in854.0 mb 0.00 in0.0 mm 0.00 in/hr0.0 mm/hr 0.00 in0.0 mm
12:23 PM 42.8°F6.0°C 19.0°F-7.2°C 38% 4.0 mph ENE6.4 kmh ENE 5.8 mph9.3 kmh 25.22 in854.0 mb 0.00 in0.0 mm 0.00 in/hr0.0 mm/hr 0.00 in0.0 mm
12:28 PM 42.8°F6.0°C 19.0°F-7.2°C 38% 3.0 mph ENE4.8 kmh ENE 6.3 mph10.1 kmh 25.22 in854.0 mb 0.00 in0.0 mm 0.00 in/hr0.0 mm/hr 0.00 in0.0 mm
12:33 PM 43.2°F6.2°C 19.2°F-7.1°C 38% 3.0 mph ENE4.8 kmh ENE 5.8 mph9.3 kmh 25.22 in854.0 mb 0.00 in0.0 mm 0.00 in/hr0.0 mm/hr 0.00 in0.0 mm
12:38 PM 44.1°F6.7°C 20.1°F-6.6°C 38% 3.0 mph NE4.8 kmh NE 5.8 mph9.3 kmh 25.22 in854.0 mb 0.00 in0.0 mm 0.00 in/hr0.0 mm/hr 0.00 in0.0 mm
12:43 PM 43.7°F6.5°C 19.8°F-6.8°C 38% 4.0 mph NNE6.4 kmh NNE 6.7 mph10.8 kmh 25.22 in854.0 mb 0.00 in0.0 mm 0.00 in/hr0.0 mm/hr 0.00 in0.0 mm
12:48 PM 43.9°F6.6°C 19.9°F-6.7°C 38% 4.0 mph NNE6.4 kmh NNE 5.8 mph9.3 kmh 25.22 in854.0 mb 0.00 in0.0 mm 0.00 in/hr0.0 mm/hr 0.00 in0.0 mm
12:53 PM 44.2°F6.8°C 20.3°F-6.5°C 38% 3.0 mph N4.8 kmh N 5.8 mph9.3 kmh 25.22 in854.0 mb 0.00 in0.0 mm 0.00 in/hr0.0 mm/hr 0.00 in0.0 mm
12:58 PM 44.8°F7.1°C 20.1°F-6.6°C 37% 4.0 mph NNW6.4 kmh NNW 6.9 mph11.1 kmh 25.19 in853.0 mb 0.00 in0.0 mm 0.00 in/hr0.0 mm/hr 0.00 in0.0 mm
01:03 PM 45.5°F7.5°C 21.4°F-5.9°C 38% 4.0 mph SSW6.4 kmh SSW 7.8 mph12.6 kmh 25.19 in853.0 mb 0.00 in0.0 mm 0.00 in/hr0.0 mm/hr 0.00 in0.0 mm
01:08 PM 45.3°F7.4°C 21.2°F-6.0°C 38% 4.0 mph WNW6.4 kmh WNW 9.2 mph14.8 kmh 25.19 in853.0 mb 0.00 in0.0 mm 0.00 in/hr0.0 mm/hr 0.00 in0.0 mm
01:13 PM 45.5°F7.5°C 21.4°F-5.9°C 38% 4.0 mph NW6.4 kmh NW 6.9 mph11.1 kmh 25.19 in853.0 mb 0.00 in0.0 mm 0.00 in/hr0.0 mm/hr 0.00 in0.0 mm
01:18 PM 44.8°F7.1°C 20.7°F-6.3°C 38% 4.0 mph N6.4 kmh N 7.8 mph12.6 kmh 25.19 in853.0 mb 0.00 in0.0 mm 0.00 in/hr0.0 mm/hr 0.00 in0.0 mm
01:23 PM 45.1°F7.3°C 21.7°F-5.7°C 39% 6.0 mph NNE9.7 kmh NNE 7.8 mph12.6 kmh 25.19 in853.0 mb 0.00 in0.0 mm 0.00 in/hr0.0 mm/hr 0.00 in0.0 mm
01:28 PM 45.0°F7.2°C 20.8°F-6.2°C 38% 6.0 mph NNE9.7 kmh NNE 9.2 mph14.8 kmh 25.19 in853.0 mb 0.00 in0.0 mm 0.00 in/hr0.0 mm/hr 0.00 in0.0 mm
01:33 PM 45.7°F7.6°C 21.6°F-5.8°C 38% 4.0 mph NNE6.4 kmh NNE 10.5 mph16.9 kmh 25.19 in853.0 mb 0.00 in0.0 mm 0.00 in/hr0.0 mm/hr 0.00 in0.0 mm
01:38 PM 45.7°F7.6°C 20.8°F-6.2°C 37% 5.0 mph N8.0 kmh N 9.6 mph15.4 kmh 25.19 in853.0 mb 0.00 in0.0 mm 0.00 in/hr0.0 mm/hr 0.00 in0.0 mm
01:43 PM 45.7°F7.6°C 20.8°F-6.2°C 37% 6.0 mph NNW9.7 kmh NNW 9.6 mph15.4 kmh 25.19 in853.0 mb 0.00 in0.0 mm 0.00 in/hr0.0 mm/hr 0.00 in0.0 mm
01:48 PM 45.5°F7.5°C 20.8°F-6.2°C 37% 5.0 mph N8.0 kmh N 9.2 mph14.8 kmh 25.19 in853.0 mb 0.00 in0.0 mm 0.00 in/hr0.0 mm/hr 0.00 in0.0 mm
01:53 PM 45.7°F7.6°C 20.8°F-6.2°C 37% 4.0 mph NNE6.4 kmh NNE 6.3 mph10.1 kmh 25.19 in853.0 mb 0.00 in0.0 mm 0.00 in/hr0.0 mm/hr 0.00 in0.0 mm
01:58 PM 45.9°F7.7°C 21.0°F-6.1°C 37% 5.0 mph N8.0 kmh N 9.2 mph14.8 kmh 25.16 in852.0 mb 0.00 in0.0 mm 0.00 in/hr0.0 mm/hr 0.00 in0.0 mm
02:03 PM 45.7°F7.6°C 19.6°F-6.9°C 35% 6.0 mph NW9.7 kmh NW 7.8 mph12.6 kmh 25.16 in852.0 mb 0.00 in0.0 mm 0.00 in/hr0.0 mm/hr 0.00 in0.0 mm
02:08 PM 45.9°F7.7°C 20.5°F-6.4°C 36% 6.0 mph NNW9.7 kmh NNW 7.8 mph12.6 kmh 25.16 in852.0 mb 0.00 in0.0 mm 0.00 in/hr0.0 mm/hr 0.00 in0.0 mm
02:13 PM 45.9°F7.7°C 19.0°F-7.2°C 34% 5.0 mph NNW8.0 kmh NNW 6.7 mph10.8 kmh 25.16 in852.0 mb 0.00 in0.0 mm 0.00 in/hr0.0 mm/hr 0.00 in0.0 mm
02:18 PM 46.4°F8.0°C 19.6°F-6.9°C 34% 5.0 mph NW8.0 kmh NW 9.2 mph14.8 kmh 25.16 in852.0 mb 0.00 in0.0 mm 0.00 in/hr0.0 mm/hr 0.00 in0.0 mm
02:23 PM 46.2°F7.9°C 18.7°F-7.4°C 33% 5.0 mph NW8.0 kmh NW 7.8 mph12.6 kmh 25.16 in852.0 mb 0.00 in0.0 mm 0.00 in/hr0.0 mm/hr 0.00 in0.0 mm
02:28 PM 46.6°F8.1°C 18.3°F-7.6°C 32% 3.0 mph NW4.8 kmh NW 5.4 mph8.7 kmh 25.16 in852.0 mb 0.00 in0.0 mm 0.00 in/hr0.0 mm/hr 0.00 in0.0 mm
02:33 PM 46.9°F8.3°C 18.7°F-7.4°C 32% 2.0 mph NW3.2 kmh NW 5.8 mph9.3 kmh 25.16 in852.0 mb 0.00 in0.0 mm 0.00 in/hr0.0 mm/hr 0.00 in0.0 mm
02:38 PM 46.6°F8.1°C 17.6°F-8.0°C 31% 3.0 mph NW4.8 kmh NW 6.3 mph10.1 kmh 25.16 in852.0 mb 0.00 in0.0 mm 0.00 in/hr0.0 mm/hr 0.00 in0.0 mm
02:43 PM 46.4°F8.0°C 17.4°F-8.1°C 31% 3.0 mph NW4.8 kmh NW 5.4 mph8.7 kmh 25.13 in851.0 mb 0.00 in0.0 mm 0.00 in/hr0.0 mm/hr 0.00 in0.0 mm
02:48 PM 47.1°F8.4°C 18.9°F-7.3°C 32% 3.0 mph NW4.8 kmh NW 6.3 mph10.1 kmh 25.13 in851.0 mb 0.00 in0.0 mm 0.00 in/hr0.0 mm/hr 0.00 in0.0 mm
02:53 PM 47.1°F8.4°C 19.6°F-6.9°C 33% 4.0 mph NW6.4 kmh NW 7.4 mph11.9 kmh 25.13 in851.0 mb 0.00 in0.0 mm 0.00 in/hr0.0 mm/hr 0.00 in0.0 mm
02:58 PM 46.8°F8.2°C 17.8°F-7.9°C 31% 5.0 mph NNW8.0 kmh NNW 9.2 mph14.8 kmh 25.13 in851.0 mb 0.00 in0.0 mm 0.00 in/hr0.0 mm/hr 0.00 in0.0 mm
03:03 PM 46.9°F8.3°C 18.7°F-7.4°C 32% 4.0 mph NW6.4 kmh NW 6.3 mph10.1 kmh 25.13 in851.0 mb 0.00 in0.0 mm 0.00 in/hr0.0 mm/hr 0.00 in0.0 mm
03:08 PM 46.9°F8.3°C 18.7°F-7.4°C 32% 2.0 mph NW3.2 kmh NW 5.4 mph8.7 kmh 25.13 in851.0 mb 0.00 in0.0 mm 0.00 in/hr0.0 mm/hr 0.00 in0.0 mm
03:13 PM 47.3°F8.5°C 20.3°F-6.5°C 34% 3.0 mph NW4.8 kmh NW 7.4 mph11.9 kmh 25.13 in851.0 mb 0.00 in0.0 mm 0.00 in/hr0.0 mm/hr 0.00 in0.0 mm
03:18 PM 47.3°F8.5°C 19.0°F-7.2°C 32% 5.0 mph NW8.0 kmh NW 6.9 mph11.1 kmh 25.13 in851.0 mb 0.00 in0.0 mm 0.00 in/hr0.0 mm/hr 0.00 in0.0 mm
03:23 PM 46.9°F8.3°C 18.7°F-7.4°C 32% 4.0 mph NW6.4 kmh NW 8.7 mph14.0 kmh 25.13 in851.0 mb 0.00 in0.0 mm 0.00 in/hr0.0 mm/hr 0.00 in0.0 mm
03:28 PM 46.9°F8.3°C 19.4°F-7.0°C 33% 4.0 mph NNW6.4 kmh NNW 5.4 mph8.7 kmh 25.13 in851.0 mb 0.00 in0.0 mm 0.00 in/hr0.0 mm/hr 0.00 in0.0 mm
03:38 PM 47.5°F8.6°C 18.3°F-7.6°C 31% 2.0 mph N3.2 kmh N 5.4 mph8.7 kmh 25.13 in851.0 mb 0.00 in0.0 mm 0.00 in/hr0.0 mm/hr 0.00 in0.0 mm
03:43 PM 47.3°F8.5°C 18.1°F-7.7°C 31% 3.0 mph NW4.8 kmh NW 6.7 mph10.8 kmh 25.10 in850.0 mb 0.00 in0.0 mm 0.00 in/hr0.0 mm/hr 0.00 in0.0 mm
03:48 PM 47.3°F8.5°C 18.1°F-7.7°C 31% 4.0 mph W6.4 kmh W 4.9 mph7.9 kmh 25.10 in850.0 mb 0.00 in0.0 mm 0.00 in/hr0.0 mm/hr 0.00 in0.0 mm
03:53 PM 47.3°F8.5°C 19.0°F-7.2°C 32% 3.0 mph W4.8 kmh W 6.3 mph10.1 kmh 25.10 in850.0 mb 0.00 in0.0 mm 0.00 in/hr0.0 mm/hr 0.00 in0.0 mm
03:58 PM 46.9°F8.3°C 18.0°F-7.8°C 31% 4.0 mph WNW6.4 kmh WNW 5.4 mph8.7 kmh 25.10 in850.0 mb 0.00 in0.0 mm 0.00 in/hr0.0 mm/hr 0.00 in0.0 mm
04:03 PM 46.8°F8.2°C 17.8°F-7.9°C 31% 4.0 mph WNW6.4 kmh WNW 6.9 mph11.1 kmh 25.10 in850.0 mb 0.00 in0.0 mm 0.00 in/hr0.0 mm/hr 0.00 in0.0 mm
04:08 PM 46.6°F8.1°C 17.6°F-8.0°C 31% 5.0 mph WSW8.0 kmh WSW 6.9 mph11.1 kmh 25.10 in850.0 mb 0.00 in0.0 mm 0.00 in/hr0.0 mm/hr 0.00 in0.0 mm
04:13 PM 46.0°F7.8°C 17.8°F-7.9°C 32% 5.0 mph WSW8.0 kmh WSW 6.9 mph11.1 kmh 25.10 in850.0 mb 0.00 in0.0 mm 0.00 in/hr0.0 mm/hr 0.00 in0.0 mm
04:18 PM 46.0°F7.8°C 18.5°F-7.5°C 33% 5.0 mph W8.0 kmh W 6.3 mph10.1 kmh 25.10 in850.0 mb 0.00 in0.0 mm 0.00 in/hr0.0 mm/hr 0.00 in0.0 mm
04:24 PM 45.5°F7.5°C 19.4°F-7.0°C 35% 5.0 mph W8.0 kmh W 6.3 mph10.1 kmh 25.10 in850.0 mb 0.00 in0.0 mm 0.00 in/hr0.0 mm/hr 0.00 in0.0 mm
04:29 PM 45.0°F7.2°C 19.0°F-7.2°C 35% 4.0 mph W6.4 kmh W 5.8 mph9.3 kmh 25.10 in850.0 mb 0.00 in0.0 mm 0.00 in/hr0.0 mm/hr 0.00 in0.0 mm
04:39 PM 44.4°F6.9°C 20.5°F-6.4°C 38% 3.0 mph W4.8 kmh W 3.6 mph5.8 kmh 25.10 in850.0 mb 0.00 in0.0 mm 0.00 in/hr0.0 mm/hr 0.00 in0.0 mm
04:44 PM 44.1°F6.7°C 20.7°F-6.3°C 39% 2.0 mph W3.2 kmh W 3.1 mph5.0 kmh 25.10 in850.0 mb 0.00 in0.0 mm 0.00 in/hr0.0 mm/hr 0.00 in0.0 mm
04:49 PM 43.7°F6.5°C 20.3°F-6.5°C 39% 2.0 mph W3.2 kmh W 3.1 mph5.0 kmh 25.10 in850.0 mb 0.00 in0.0 mm 0.00 in/hr0.0 mm/hr 0.00 in0.0 mm
04:54 PM 43.3°F6.3°C 20.7°F-6.3°C 40% 1.0 mph W1.6 kmh W 3.6 mph5.8 kmh 25.10 in850.0 mb 0.00 in0.0 mm 0.00 in/hr0.0 mm/hr 0.00 in0.0 mm
04:59 PM 42.8°F6.0°C 20.7°F-6.3°C 41% Calm Calm 3.6 mph5.8 kmh 25.10 in850.0 mb 0.00 in0.0 mm 0.00 in/hr0.0 mm/hr 0.00 in0.0 mm
05:04 PM 42.4°F5.8°C 20.5°F-6.4°C 41% 1.0 mph W1.6 kmh W 3.6 mph5.8 kmh 25.10 in850.0 mb 0.00 in0.0 mm 0.00 in/hr0.0 mm/hr 0.00 in0.0 mm
05:09 PM 41.9°F5.5°C 20.5°F-6.4°C 42% 1.0 mph W1.6 kmh W 3.6 mph5.8 kmh 25.10 in850.0 mb 0.00 in0.0 mm 0.00 in/hr0.0 mm/hr 0.00 in0.0 mm
05:14 PM 41.4°F5.2°C 21.0°F-6.1°C 44% Calm Calm 2.7 mph4.3 kmh 25.10 in850.0 mb 0.00 in0.0 mm 0.00 in/hr0.0 mm/hr 0.00 in0.0 mm
05:19 PM 41.0°F5.0°C 20.8°F-6.2°C 44% Calm Calm 3.1 mph5.0 kmh 25.10 in850.0 mb 0.00 in0.0 mm 0.00 in/hr0.0 mm/hr 0.00 in0.0 mm
05:24 PM 40.6°F4.8°C 21.0°F-6.1°C 45% 1.0 mph W1.6 kmh W 4.0 mph6.4 kmh 25.10 in850.0 mb 0.00 in0.0 mm 0.00 in/hr0.0 mm/hr 0.00 in0.0 mm
05:29 PM 40.5°F4.7°C 21.9°F-5.6°C 47% 1.0 mph W1.6 kmh W -- 25.10 in850.0 mb 0.00 in0.0 mm 0.00 in/hr0.0 mm/hr 0.00 in0.0 mm
05:34 PM 40.5°F4.7°C 21.9°F-5.6°C 47% Calm Calm 4.9 mph7.9 kmh 25.10 in850.0 mb 0.00 in0.0 mm 0.00 in/hr0.0 mm/hr 0.00 in0.0 mm
05:39 PM 40.5°F4.7°C 21.9°F-5.6°C 47% 2.0 mph W3.2 kmh W 4.9 mph7.9 kmh 25.10 in850.0 mb 0.00 in0.0 mm 0.00 in/hr0.0 mm/hr 0.00 in0.0 mm
05:44 PM 40.1°F4.5°C 21.9°F-5.6°C 48% 2.0 mph W3.2 kmh W 4.0 mph6.4 kmh 25.10 in850.0 mb 0.00 in0.0 mm 0.00 in/hr0.0 mm/hr 0.00 in0.0 mm
05:49 PM 39.7°F4.3°C 22.1°F-5.5°C 49% Calm Calm -- 25.10 in850.0 mb 0.00 in0.0 mm 0.00 in/hr0.0 mm/hr 0.00 in0.0 mm
05:54 PM 39.7°F4.3°C 22.1°F-5.5°C 49% Calm Calm -- 25.10 in850.0 mb 0.00 in0.0 mm 0.00 in/hr0.0 mm/hr 0.00 in0.0 mm
05:59 PM 39.7°F4.3°C 21.7°F-5.7°C 48% Calm Calm -- 25.10 in850.0 mb 0.00 in0.0 mm 0.00 in/hr0.0 mm/hr 0.00 in0.0 mm
06:04 PM 39.6°F4.2°C 21.9°F-5.6°C 49% Calm Calm -- 25.10 in850.0 mb 0.00 in0.0 mm 0.00 in/hr0.0 mm/hr 0.00 in0.0 mm
06:09 PM 39.4°F4.1°C 21.7°F-5.7°C 49% Calm Calm -- 25.10 in850.0 mb 0.00 in0.0 mm 0.00 in/hr0.0 mm/hr 0.00 in0.0 mm
06:14 PM 39.4°F4.1°C 21.7°F-5.7°C 49% Calm Calm 3.6 mph5.8 kmh 25.10 in850.0 mb 0.00 in0.0 mm 0.00 in/hr0.0 mm/hr 0.00 in0.0 mm
06:19 PM 39.4°F4.1°C 22.3°F-5.4°C 50% 1.0 mph W1.6 kmh W 3.6 mph5.8 kmh 25.10 in850.0 mb 0.00 in0.0 mm 0.00 in/hr0.0 mm/hr 0.00 in0.0 mm
06:24 PM 39.2°F4.0°C 22.1°F-5.5°C 50% Calm Calm -- 25.10 in850.0 mb 0.00 in0.0 mm 0.00 in/hr0.0 mm/hr 0.00 in0.0 mm
06:29 PM 39.2°F4.0°C 22.1°F-5.5°C 50% Calm Calm -- 25.10 in850.0 mb 0.00 in0.0 mm 0.00 in/hr0.0 mm/hr 0.00 in0.0 mm
06:34 PM 39.0°F3.9°C 22.5°F-5.3°C 51% Calm Calm 3.1 mph5.0 kmh 25.10 in850.0 mb 0.00 in0.0 mm 0.00 in/hr0.0 mm/hr 0.00 in0.0 mm
06:39 PM 38.8°F3.8°C 22.3°F-5.4°C 51% Calm Calm 3.6 mph5.8 kmh 25.10 in850.0 mb 0.00 in0.0 mm 0.00 in/hr0.0 mm/hr 0.00 in0.0 mm
06:44 PM 38.7°F3.7°C 22.1°F-5.5°C 51% Calm Calm -- 25.10 in850.0 mb 0.00 in0.0 mm 0.00 in/hr0.0 mm/hr 0.00 in0.0 mm
06:49 PM 38.7°F3.7°C 22.1°F-5.5°C 51% Calm Calm -- 25.10 in850.0 mb 0.00 in0.0 mm 0.00 in/hr0.0 mm/hr 0.00 in0.0 mm
06:54 PM 38.8°F3.8°C 22.3°F-5.4°C 51% Calm Calm -- 25.10 in850.0 mb 0.00 in0.0 mm 0.00 in/hr0.0 mm/hr 0.00 in0.0 mm
06:59 PM 38.8°F3.8°C 22.3°F-5.4°C 51% Calm Calm -- 25.07 in849.0 mb 0.00 in0.0 mm 0.00 in/hr0.0 mm/hr 0.00 in0.0 mm
07:04 PM 38.7°F3.7°C 22.1°F-5.5°C 51% Calm Calm 3.1 mph5.0 kmh 25.07 in849.0 mb 0.00 in0.0 mm 0.00 in/hr0.0 mm/hr 0.00 in0.0 mm
07:09 PM 38.7°F3.7°C 22.1°F-5.5°C 51% Calm Calm 2.7 mph4.3 kmh 25.07 in849.0 mb 0.00 in0.0 mm 0.00 in/hr0.0 mm/hr 0.00 in0.0 mm
07:14 PM 38.5°F3.6°C 21.9°F-5.6°C 51% Calm Calm -- 25.07 in849.0 mb 0.00 in0.0 mm 0.00 in/hr0.0 mm/hr 0.00 in0.0 mm
07:19 PM 38.3°F3.5°C 21.7°F-5.7°C 51% Calm Calm -- 25.07 in849.0 mb 0.00 in0.0 mm 0.00 in/hr0.0 mm/hr 0.00 in0.0 mm
07:24 PM 38.7°F3.7°C 22.6°F-5.2°C 52% Calm Calm -- 25.07 in849.0 mb 0.00 in0.0 mm 0.00 in/hr0.0 mm/hr 0.00 in0.0 mm
07:29 PM 38.7°F3.7°C 22.1°F-5.5°C 51% Calm Calm 4.0 mph6.4 kmh 25.07 in849.0 mb 0.00 in0.0 mm 0.00 in/hr0.0 mm/hr 0.00 in0.0 mm
07:34 PM 38.8°F3.8°C 22.3°F-5.4°C 51% Calm Calm 3.6 mph5.8 kmh 25.07 in849.0 mb 0.00 in0.0 mm 0.00 in/hr0.0 mm/hr 0.00 in0.0 mm
07:39 PM 38.8°F3.8°C 22.3°F-5.4°C 51% Calm Calm -- 25.07 in849.0 mb 0.00 in0.0 mm 0.00 in/hr0.0 mm/hr 0.00 in0.0 mm
07:44 PM 38.7°F3.7°C 22.1°F-5.5°C 51% Calm Calm -- 25.07 in849.0 mb 0.00 in0.0 mm 0.00 in/hr0.0 mm/hr 0.00 in0.0 mm
07:49 PM 38.3°F3.5°C 21.7°F-5.7°C 51% Calm Calm -- 25.07 in849.0 mb 0.00 in0.0 mm 0.00 in/hr0.0 mm/hr 0.00 in0.0 mm
07:54 PM 38.1°F3.4°C 22.1°F-5.5°C 52% Calm Calm 3.6 mph5.8 kmh 25.07 in849.0 mb 0.00 in0.0 mm 0.00 in/hr0.0 mm/hr 0.00 in0.0 mm
07:59 PM 38.7°F3.7°C 22.6°F-5.2°C 52% Calm Calm -- 25.07 in849.0 mb 0.00 in0.0 mm 0.00 in/hr0.0 mm/hr 0.00 in0.0 mm
08:04 PM 38.5°F3.6°C 21.9°F-5.6°C 51% Calm Calm 3.6 mph5.8 kmh 25.07 in849.0 mb 0.00 in0.0 mm 0.00 in/hr0.0 mm/hr 0.00 in0.0 mm
08:09 PM 38.5°F3.6°C 21.9°F-5.6°C 51% Calm Calm -- 25.07 in849.0 mb 0.00 in0.0 mm 0.00 in/hr0.0 mm/hr 0.00 in0.0 mm
08:14 PM 38.5°F3.6°C 21.9°F-5.6°C 51% Calm Calm -- 25.07 in849.0 mb 0.00 in0.0 mm 0.00 in/hr0.0 mm/hr 0.00 in0.0 mm
08:19 PM 38.7°F3.7°C 21.6°F-5.8°C 50% Calm Calm -- 25.07 in849.0 mb 0.00 in0.0 mm 0.00 in/hr0.0 mm/hr 0.00 in0.0 mm
08:24 PM 38.1°F3.4°C 21.6°F-5.8°C 51% Calm Calm 4.0 mph6.4 kmh 25.07 in849.0 mb 0.00 in0.0 mm 0.00 in/hr0.0 mm/hr 0.00 in0.0 mm
08:29 PM 37.9°F3.3°C 21.4°F-5.9°C 51% 1.0 mph W1.6 kmh W 4.0 mph6.4 kmh 25.07 in849.0 mb 0.00 in0.0 mm 0.00 in/hr0.0 mm/hr 0.00 in0.0 mm
08:34 PM 37.9°F3.3°C 21.4°F-5.9°C 51% Calm Calm -- 25.07 in849.0 mb 0.00 in0.0 mm 0.00 in/hr0.0 mm/hr 0.00 in0.0 mm
08:39 PM 37.9°F3.3°C 21.4°F-5.9°C 51% Calm Calm 4.5 mph7.2 kmh 25.07 in849.0 mb 0.00 in0.0 mm 0.00 in/hr0.0 mm/hr 0.00 in0.0 mm
08:44 PM 38.3°F3.5°C 21.7°F-5.7°C 51% 2.0 mph W3.2 kmh W 6.7 mph10.8 kmh 25.07 in849.0 mb 0.00 in0.0 mm 0.00 in/hr0.0 mm/hr 0.00 in0.0 mm
08:49 PM 37.8°F3.2°C 21.7°F-5.7°C 52% 2.0 mph NW3.2 kmh NW 3.6 mph5.8 kmh 25.07 in849.0 mb 0.00 in0.0 mm 0.00 in/hr0.0 mm/hr 0.00 in0.0 mm
08:54 PM 37.8°F3.2°C 21.7°F-5.7°C 52% Calm Calm 4.5 mph7.2 kmh 25.07 in849.0 mb 0.00 in0.0 mm 0.00 in/hr0.0 mm/hr 0.00 in0.0 mm
08:59 PM 37.6°F3.1°C 21.2°F-6.0°C 51% 2.0 mph WSW3.2 kmh WSW 4.9 mph7.9 kmh 25.07 in849.0 mb 0.00 in0.0 mm 0.00 in/hr0.0 mm/hr 0.00 in0.0 mm
09:04 PM 37.0°F2.8°C 21.0°F-6.1°C 52% 1.0 mph SW1.6 kmh SW -- 25.07 in849.0 mb 0.00 in0.0 mm 0.00 in/hr0.0 mm/hr 0.00 in0.0 mm
09:09 PM 37.0°F2.8°C 21.0°F-6.1°C 52% Calm Calm -- 25.07 in849.0 mb 0.00 in0.0 mm 0.00 in/hr0.0 mm/hr 0.00 in0.0 mm
09:14 PM 37.2°F2.9°C 21.2°F-6.0°C 52% 1.0 mph SW1.6 kmh SW 4.5 mph7.2 kmh 25.07 in849.0 mb 0.00 in0.0 mm 0.00 in/hr0.0 mm/hr 0.00 in0.0 mm
09:19 PM 37.0°F2.8°C 21.0°F-6.1°C 52% 2.0 mph WSW3.2 kmh WSW 5.4 mph8.7 kmh 25.07 in849.0 mb 0.00 in0.0 mm 0.00 in/hr0.0 mm/hr 0.00 in0.0 mm
09:24 PM 36.1°F2.3°C 21.2°F-6.0°C 54% 2.0 mph S3.2 kmh S 5.4 mph8.7 kmh 25.07 in849.0 mb 0.00 in0.0 mm 0.00 in/hr0.0 mm/hr 0.00 in0.0 mm
09:29 PM 35.8°F2.1°C 21.2°F-6.0°C 55% 3.0 mph SE4.8 kmh SE 4.9 mph7.9 kmh 25.07 in849.0 mb 0.00 in0.0 mm 0.00 in/hr0.0 mm/hr 0.00 in0.0 mm
09:34 PM 36.3°F2.4°C 23.4°F-4.8°C 59% 3.0 mph SE4.8 kmh SE 4.9 mph7.9 kmh 25.07 in849.0 mb 0.00 in0.0 mm 0.00 in/hr0.0 mm/hr 0.00 in0.0 mm
09:39 PM 36.1°F2.3°C 22.8°F-5.1°C 58% 3.0 mph ESE4.8 kmh ESE 4.9 mph7.9 kmh 25.07 in849.0 mb 0.00 in0.0 mm 0.00 in/hr0.0 mm/hr 0.00 in0.0 mm
09:44 PM 34.9°F1.6°C 22.1°F-5.5°C 59% 2.0 mph SE3.2 kmh SE 6.3 mph10.1 kmh 25.07 in849.0 mb 0.00 in0.0 mm 0.00 in/hr0.0 mm/hr 0.00 in0.0 mm
09:49 PM 34.9°F1.6°C 22.8°F-5.1°C 61% 2.0 mph SE3.2 kmh SE 5.8 mph9.3 kmh 25.07 in849.0 mb 0.00 in0.0 mm 0.00 in/hr0.0 mm/hr 0.00 in0.0 mm
09:54 PM 34.5°F1.4°C 22.8°F-5.1°C 62% 3.0 mph SE4.8 kmh SE 6.3 mph10.1 kmh 25.07 in849.0 mb 0.00 in0.0 mm 0.00 in/hr0.0 mm/hr 0.00 in0.0 mm
09:59 PM 34.7°F1.5°C 23.7°F-4.6°C 64% 4.0 mph SE6.4 kmh SE 5.4 mph8.7 kmh 25.07 in849.0 mb 0.00 in0.0 mm 0.00 in/hr0.0 mm/hr 0.00 in0.0 mm
10:04 PM 35.4°F1.9°C 24.4°F-4.2°C 64% 3.0 mph SE4.8 kmh SE 4.9 mph7.9 kmh 25.07 in849.0 mb 0.00 in0.0 mm 0.00 in/hr0.0 mm/hr 0.00 in0.0 mm
10:09 PM 36.0°F2.2°C 23.9°F-4.5°C 61% 3.0 mph ESE4.8 kmh ESE 4.5 mph7.2 kmh 25.07 in849.0 mb 0.00 in0.0 mm 0.00 in/hr0.0 mm/hr 0.00 in0.0 mm
10:14 PM 36.7°F2.6°C 24.1°F-4.4°C 60% 2.0 mph E3.2 kmh E 3.6 mph5.8 kmh 25.04 in848.0 mb 0.00 in0.0 mm 0.00 in/hr0.0 mm/hr 0.00 in0.0 mm
10:19 PM 36.0°F2.2°C 22.6°F-5.2°C 58% Calm Calm -- 25.04 in848.0 mb 0.00 in0.0 mm 0.00 in/hr0.0 mm/hr 0.00 in0.0 mm
10:24 PM 35.1°F1.7°C 22.3°F-5.4°C 59% Calm Calm 6.3 mph10.1 kmh 25.04 in848.0 mb 0.00 in0.0 mm 0.00 in/hr0.0 mm/hr 0.00 in0.0 mm
10:29 PM 33.4°F0.8°C 21.9°F-5.6°C 62% 1.0 mph S1.6 kmh S 5.4 mph8.7 kmh 25.04 in848.0 mb 0.00 in0.0 mm 0.00 in/hr0.0 mm/hr 0.00 in0.0 mm
10:34 PM 32.9°F0.5°C 23.5°F-4.7°C 68% 1.0 mph SSW1.6 kmh SSW 4.9 mph7.9 kmh 25.04 in848.0 mb 0.00 in0.0 mm 0.00 in/hr0.0 mm/hr 0.00 in0.0 mm
10:39 PM 33.1°F0.6°C 24.1°F-4.4°C 69% 1.0 mph NE1.6 kmh NE 4.9 mph7.9 kmh 25.04 in848.0 mb 0.00 in0.0 mm 0.00 in/hr0.0 mm/hr 0.00 in0.0 mm
10:44 PM 33.3°F0.7°C 23.9°F-4.5°C 68% Calm Calm -- 25.04 in848.0 mb 0.00 in0.0 mm 0.00 in/hr0.0 mm/hr 0.00 in0.0 mm
10:49 PM 34.0°F1.1°C 25.0°F-3.9°C 69% Calm Calm -- 25.04 in848.0 mb 0.00 in0.0 mm 0.00 in/hr0.0 mm/hr 0.00 in0.0 mm
10:54 PM 34.0°F1.1°C 24.3°F-4.3°C 67% Calm Calm -- 25.04 in848.0 mb 0.00 in0.0 mm 0.00 in/hr0.0 mm/hr 0.00 in0.0 mm
10:59 PM 33.4°F0.8°C 23.4°F-4.8°C 66% 2.0 mph S3.2 kmh S 5.4 mph8.7 kmh 25.04 in848.0 mb 0.00 in0.0 mm 0.00 in/hr0.0 mm/hr 0.00 in0.0 mm
11:04 PM 33.8°F1.0°C 24.1°F-4.4°C 67% 2.0 mph SE3.2 kmh SE 4.0 mph6.4 kmh 25.04 in848.0 mb 0.00 in0.0 mm 0.00 in/hr0.0 mm/hr 0.00 in0.0 mm
11:09 PM 34.5°F1.4°C 24.6°F-4.1°C 67% Calm Calm -- 25.04 in848.0 mb 0.00 in0.0 mm 0.00 in/hr0.0 mm/hr 0.00 in0.0 mm
11:14 PM 35.6°F2.0°C 24.3°F-4.3°C 63% Calm Calm 4.0 mph6.4 kmh 25.04 in848.0 mb 0.00 in0.0 mm 0.00 in/hr0.0 mm/hr 0.00 in0.0 mm
11:19 PM 34.2°F1.2°C 22.5°F-5.3°C 62% Calm Calm -- 25.04 in848.0 mb 0.00 in0.0 mm 0.00 in/hr0.0 mm/hr 0.00 in0.0 mm
11:24 PM 33.8°F1.0°C 22.6°F-5.2°C 63% Calm Calm -- 25.04 in848.0 mb 0.00 in0.0 mm 0.00 in/hr0.0 mm/hr 0.00 in0.0 mm
11:29 PM 34.0°F1.1°C 23.2°F-4.9°C 64% Calm Calm 4.5 mph7.2 kmh 25.04 in848.0 mb 0.00 in0.0 mm 0.00 in/hr0.0 mm/hr 0.00 in0.0 mm
11:35 PM 34.9°F1.6°C 23.9°F-4.5°C 64% Calm Calm 6.3 mph10.1 kmh 25.04 in848.0 mb 0.00 in0.0 mm 0.00 in/hr0.0 mm/hr 0.00 in0.0 mm
11:40 PM 34.3°F1.3°C 23.0°F-5.0°C 63% Calm Calm 6.7 mph10.8 kmh 25.04 in848.0 mb 0.00 in0.0 mm 0.00 in/hr0.0 mm/hr 0.00 in0.0 mm
11:45 PM 33.8°F1.0°C 22.6°F-5.2°C 63% Calm Calm -- 25.01 in846.9 mb 0.00 in0.0 mm 0.00 in/hr0.0 mm/hr 0.00 in0.0 mm
11:50 PM 33.1°F0.6°C 24.1°F-4.4°C 69% 1.0 mph SSW1.6 kmh SSW 7.4 mph11.9 kmh 25.01 in846.9 mb 0.00 in0.0 mm 0.00 in/hr0.0 mm/hr 0.00 in0.0 mm
11:55 PM 34.2°F1.2°C 24.8°F-4.0°C 68% 1.0 mph NE1.6 kmh NE 3.1 mph5.0 kmh 25.01 in846.9 mb 0.00 in0.0 mm 0.00 in/hr0.0 mm/hr 0.00 in0.0 mm